Nathrop, Colorado
Current Conditions -  °F | °C
As of 6:35 AM on Thursday 23 Oct 2014 (Local Time) from KAEJ Reporting Station
Clear Clear  
Wind Chill: 30°   Ceiling: Unl
Heat Index: 30°   Visibility: 10mi
Dew Point: 26°   Wind: 0mph
Humidity: 84%   Direction: NA
Pressure: 30.34"   Gusts: NA
Location:  38.75°N, 106.08°W
Report Text: KAEJ 231235Z AUTO 00000KT 10SM CLR M01/M03 A3034 RMK AO2 T10091033
Loading
Personal Weather Stations






























Interactive Weather Map
Tropical Storm Tracking
New forecast layout! Learn more

10-Day Weather Forecast

Advertisements
Track Severe Weather on mobile